createdAt,value
2022-11-20T00:00:16.208Z,44.00
2022-11-20T00:05:39.555Z,45.70
2022-11-20T00:10:42.940Z,43.90
2022-11-20T00:15:46.344Z,43.50
2022-11-20T00:20:49.711Z,44.10
2022-11-20T00:25:53.109Z,44.30
2022-11-20T00:30:56.581Z,47.10
2022-11-20T00:36:00.096Z,46.50
2022-11-20T00:41:03.530Z,45.70
2022-11-20T00:46:06.935Z,45.10
2022-11-20T00:51:10.307Z,49.20
2022-11-20T00:56:13.709Z,45.20
2022-11-20T01:01:17.259Z,45.30
2022-11-20T01:11:24.330Z,42.90
2022-11-20T01:16:27.785Z,44.90
2022-11-20T01:21:31.192Z,44.00
2022-11-20T01:26:34.630Z,43.70
2022-11-20T01:31:38.007Z,43.40
2022-11-20T01:36:41.403Z,42.30
2022-11-20T01:42:07.075Z,41.90
2022-11-20T01:47:13.039Z,41.20
2022-11-20T01:52:16.525Z,42.50
2022-11-20T01:57:19.922Z,44.10
2022-11-20T02:02:23.378Z,43.50
2022-11-20T02:07:26.839Z,42.80
2022-11-20T02:12:48.376Z,40.70
2022-11-20T02:17:55.871Z,38.70
2022-11-20T02:23:00.119Z,41.10
2022-11-20T02:28:03.543Z,40.00
2022-11-20T02:33:07.931Z,40.50
2022-11-20T02:38:11.336Z,40.50
2022-11-20T02:43:14.862Z,39.40
2022-11-20T02:48:18.373Z,40.00
2022-11-20T02:53:21.731Z,42.40
2022-11-20T02:58:25.132Z,39.10
2022-11-20T03:03:28.511Z,38.60
2022-11-20T03:08:32.045Z,39.60
2022-11-20T03:13:35.399Z,38.70
2022-11-20T03:18:38.819Z,38.30
2022-11-20T03:23:42.179Z,39.40
2022-11-20T03:28:45.592Z,39.90
2022-11-20T03:33:48.977Z,37.50
2022-11-20T03:38:52.401Z,38.20
2022-11-20T03:43:55.913Z,38.30
2022-11-20T03:48:59.291Z,38.60
2022-11-20T03:54:02.694Z,37.30
2022-11-20T03:59:06.141Z,37.60
2022-11-20T04:04:09.692Z,37.00
2022-11-20T04:09:13.070Z,40.10
2022-11-20T04:14:16.476Z,37.70
2022-11-20T04:19:20.033Z,35.80
2022-11-20T04:24:24.397Z,36.60
2022-11-20T04:29:27.821Z,35.50
2022-11-20T04:34:31.240Z,34.80
2022-11-20T04:39:34.660Z,35.10
2022-11-20T04:44:38.055Z,34.60
2022-11-20T04:49:41.479Z,33.40
2022-11-20T04:54:44.939Z,34.30
2022-11-20T04:59:48.346Z,34.20
2022-11-20T05:04:51.983Z,34.80
2022-11-20T05:09:55.437Z,33.60
2022-11-20T05:14:58.947Z,33.00
2022-11-20T05:20:02.510Z,32.90
2022-11-20T05:25:05.908Z,33.00
2022-11-20T05:30:09.353Z,31.70
2022-11-20T05:35:12.805Z,32.90
2022-11-20T05:40:16.214Z,31.40
2022-11-20T05:45:19.643Z,31.40
2022-11-20T05:50:23.061Z,30.60
2022-11-20T05:55:26.663Z,31.50
2022-11-20T06:00:30.094Z,29.40
2022-11-20T06:05:33.625Z,30.90
2022-11-20T06:10:37.165Z,29.80
2022-11-20T06:15:40.532Z,29.50
2022-11-20T06:20:43.939Z,30.90
2022-11-20T06:25:47.352Z,30.20
2022-11-20T06:30:50.767Z,28.40
2022-11-20T06:35:59.507Z,30.10
2022-11-20T06:41:03.782Z,29.10
2022-11-20T06:46:07.190Z,29.30
2022-11-20T06:51:10.593Z,30.00
2022-11-20T06:56:13.971Z,29.90
2022-11-20T07:01:17.710Z,31.40
2022-11-20T07:06:21.136Z,30.30
2022-11-20T07:11:24.498Z,30.40
2022-11-20T07:16:28.184Z,30.20
2022-11-20T07:21:31.588Z,29.90
2022-11-20T07:26:34.991Z,31.30
2022-11-20T07:31:38.621Z,32.10
2022-11-20T07:36:42.078Z,32.10
2022-11-20T07:41:45.492Z,31.50
2022-11-20T07:46:50.991Z,34.40
2022-11-20T07:51:56.702Z,32.60
2022-11-20T07:57:02.739Z,34.50
2022-11-20T08:02:06.150Z,34.60
2022-11-20T08:07:09.660Z,36.60
2022-11-20T08:12:30.813Z,34.90
2022-11-20T08:17:34.203Z,33.90
2022-11-20T08:22:37.599Z,34.20
2022-11-20T08:27:41.180Z,34.40
2022-11-20T08:32:44.742Z,35.90
2022-11-20T08:37:48.196Z,33.70
2022-11-20T08:42:51.671Z,33.50
2022-11-20T08:47:55.095Z,35.40
2022-11-20T08:52:58.462Z,33.90
2022-11-20T08:58:02.949Z,33.10
2022-11-20T09:03:06.309Z,36.20
2022-11-20T09:08:09.718Z,33.90
2022-11-20T09:13:13.214Z,34.40
2022-11-20T09:18:16.600Z,33.60
2022-11-20T09:23:20.055Z,32.80
2022-11-20T09:28:23.522Z,33.20
2022-11-20T09:33:26.932Z,32.80
2022-11-20T09:38:30.372Z,32.40
2022-11-20T09:43:35.701Z,33.80
2022-11-20T09:48:39.849Z,33.30
2022-11-20T09:53:43.261Z,33.60
2022-11-20T09:58:46.688Z,32.90
2022-11-20T10:03:50.104Z,31.90
2022-11-20T10:08:53.499Z,33.30
2022-11-20T10:13:56.883Z,35.90
2022-11-20T10:19:00.288Z,41.80
2022-11-20T10:24:03.696Z,46.30
2022-11-20T10:29:08.975Z,38.00
2022-11-20T10:34:13.124Z,41.90
2022-11-20T10:39:16.959Z,37.30
2022-11-20T10:44:43.671Z,43.00
2022-11-20T10:49:47.077Z,44.10
2022-11-20T10:54:50.484Z,43.50
2022-11-20T10:59:53.922Z,41.20
2022-11-20T11:04:57.340Z,40.60
2022-11-20T11:10:00.779Z,40.30
2022-11-20T11:15:04.188Z,39.80
2022-11-20T11:20:07.880Z,39.90
2022-11-20T11:25:11.278Z,38.00
2022-11-20T11:30:15.213Z,40.00
2022-11-20T11:40:24.304Z,37.70
2022-11-20T11:45:28.592Z,37.90
2022-11-20T11:50:32.061Z,36.50
2022-11-20T11:55:35.435Z,36.20
2022-11-20T12:00:38.804Z,33.90
2022-11-20T12:05:44.181Z,34.70
2022-11-20T12:10:50.354Z,34.50
2022-11-20T12:15:53.699Z,34.60
2022-11-20T12:20:57.065Z,34.50
2022-11-20T12:26:00.430Z,31.90
2022-11-20T12:31:03.890Z,36.20
2022-11-20T12:36:07.335Z,33.40
2022-11-20T12:41:10.729Z,34.10
2022-11-20T12:46:14.104Z,31.10
2022-11-20T12:51:17.504Z,31.80
2022-11-20T12:56:21.234Z,31.30
2022-11-20T13:01:38.670Z,31.00
2022-11-20T13:06:42.695Z,33.50
2022-11-20T13:16:49.568Z,29.30
2022-11-20T13:21:53.030Z,28.50
2022-11-20T13:26:56.456Z,27.60
2022-11-20T13:32:04.883Z,30.20
2022-11-20T13:37:11.064Z,27.90
2022-11-20T13:42:15.387Z,26.50
2022-11-20T13:47:18.830Z,27.90
2022-11-20T13:52:22.244Z,26.50
2022-11-20T13:57:25.668Z,27.90
2022-11-20T14:02:29.191Z,25.20
2022-11-20T14:07:32.673Z,24.60
2022-11-20T14:12:37.778Z,26.40
2022-11-20T14:17:41.158Z,24.40
2022-11-20T14:22:44.568Z,24.90
2022-11-20T14:27:48.007Z,24.70
2022-11-20T14:32:51.382Z,24.70
2022-11-20T14:37:54.812Z,24.40
2022-11-20T14:42:58.287Z,21.80
2022-11-20T14:48:01.679Z,23.40
2022-11-20T14:53:05.112Z,22.80
2022-11-20T14:58:08.492Z,23.30
2022-11-20T15:03:11.894Z,22.10
2022-11-20T15:08:15.286Z,25.30
2022-11-20T15:13:18.671Z,25.80
2022-11-20T15:18:22.077Z,22.20
2022-11-20T15:23:25.451Z,22.20
2022-11-20T15:28:28.835Z,22.80
2022-11-20T15:33:32.301Z,23.10
2022-11-20T15:38:35.735Z,21.80
2022-11-20T15:43:39.613Z,21.00
2022-11-20T15:48:47.667Z,21.00
2022-11-20T15:53:51.856Z,22.30
2022-11-20T15:58:55.296Z,25.20
2022-11-20T16:03:58.861Z,21.90
2022-11-20T16:09:04.919Z,22.10
2022-11-20T16:14:26.332Z,20.20
2022-11-20T16:19:29.945Z,21.70
2022-11-20T16:24:33.376Z,22.80
2022-11-20T16:29:36.786Z,21.60
2022-11-20T16:34:40.191Z,21.00
2022-11-20T16:39:43.693Z,21.50
2022-11-20T16:44:47.095Z,21.00
2022-11-20T16:49:50.489Z,21.60
2022-11-20T16:54:53.847Z,21.90
2022-11-20T17:00:01.893Z,22.30
2022-11-20T17:05:06.579Z,22.60
2022-11-20T17:10:10.124Z,22.70
2022-11-20T17:15:13.558Z,25.50
2022-11-20T17:20:17.013Z,24.70
2022-11-20T17:25:20.426Z,27.60
2022-11-20T17:30:23.828Z,28.20
2022-11-20T17:35:27.229Z,27.60
2022-11-20T17:40:30.654Z,25.50
2022-11-20T17:45:34.053Z,25.40
2022-11-20T17:50:37.462Z,25.70
2022-11-20T17:56:00.773Z,25.80
2022-11-20T18:01:04.290Z,27.10
2022-11-20T18:06:07.827Z,26.90
2022-11-20T18:11:11.300Z,25.80
2022-11-20T18:16:14.713Z,27.00
2022-11-20T18:21:18.100Z,26.60
2022-11-20T18:26:21.524Z,26.30
2022-11-20T18:31:24.924Z,28.70
2022-11-20T18:36:29.408Z,26.30
2022-11-20T18:41:50.757Z,26.40
2022-11-20T18:46:54.111Z,27.00
2022-11-20T18:51:57.490Z,27.70
2022-11-20T18:57:00.855Z,27.20
2022-11-20T19:02:04.303Z,27.70
2022-11-20T19:07:07.743Z,28.00
2022-11-20T19:12:11.127Z,29.60
2022-11-20T19:17:14.567Z,28.60
2022-11-20T19:22:17.947Z,27.90
2022-11-20T19:27:21.414Z,28.10
2022-11-20T19:32:25.344Z,26.70
2022-11-20T19:37:50.147Z,26.70
2022-11-20T19:48:44.868Z,27.70
2022-11-20T19:53:48.422Z,28.10
2022-11-20T19:58:51.833Z,28.10
2022-11-20T20:03:55.225Z,28.50
2022-11-20T20:08:59.162Z,28.70
2022-11-20T20:19:06.076Z,27.00
2022-11-20T20:24:09.566Z,28.40
2022-11-20T20:29:20.704Z,29.10
2022-11-20T20:40:15.358Z,29.00
2022-11-20T20:45:21.101Z,29.70
2022-11-20T20:50:24.510Z,28.90
2022-11-20T20:55:28.020Z,27.70
2022-11-20T21:00:31.505Z,27.20
2022-11-20T21:05:34.973Z,27.70
2022-11-20T21:10:38.411Z,33.30
2022-11-20T21:15:41.812Z,30.10
2022-11-20T21:21:03.224Z,31.00
2022-11-20T21:26:06.640Z,30.70
2022-11-20T21:31:10.088Z,33.60
2022-11-20T21:36:13.548Z,33.40
2022-11-20T21:41:16.920Z,34.70
2022-11-20T21:46:20.298Z,31.30
2022-11-20T21:51:23.712Z,31.50
2022-11-20T21:56:27.075Z,31.00
2022-11-20T22:01:30.608Z,31.60
2022-11-20T22:06:34.161Z,31.90
2022-11-20T22:11:37.547Z,30.70
2022-11-20T22:16:40.919Z,31.30
2022-11-20T22:21:44.419Z,29.40
2022-11-20T22:26:48.245Z,29.50
2022-11-20T22:31:51.603Z,28.60
2022-11-20T22:36:55.006Z,28.90
2022-11-20T22:42:10.537Z,28.40
2022-11-20T22:47:32.257Z,26.40
2022-11-20T22:52:35.775Z,29.30
2022-11-20T22:57:39.168Z,29.00
2022-11-20T23:02:42.563Z,28.70
2022-11-20T23:07:46.059Z,31.00
2022-11-20T23:12:49.464Z,30.10
2022-11-20T23:17:52.875Z,31.50
2022-11-20T23:22:56.253Z,31.70
2022-11-20T23:27:59.952Z,30.90
2022-11-20T23:38:07.792Z,30.90
2022-11-20T23:43:17.083Z,32.40
2022-11-20T23:48:20.455Z,33.10
2022-11-20T23:53:23.833Z,31.70
2022-11-20T23:58:27.269Z,31.00
